createdAt,value
2017-10-30T00:00:57.527Z,64.13
2017-10-30T00:03:32.059Z,64.04
2017-10-30T00:06:06.498Z,64.19
2017-10-30T00:08:41.035Z,64.24
2017-10-30T00:11:15.506Z,64.51
2017-10-30T00:13:50.123Z,64.92
2017-10-30T00:16:24.532Z,65.00
2017-10-30T00:18:59.010Z,65.43
2017-10-30T00:21:33.527Z,65.70
2017-10-30T00:24:08.031Z,66.05
2017-10-30T00:26:42.500Z,66.50
2017-10-30T00:29:17.051Z,66.91
2017-10-30T00:31:51.479Z,67.12
2017-10-30T00:34:26.480Z,67.19
2017-10-30T00:37:01.041Z,67.33
2017-10-30T00:39:35.676Z,67.15
2017-10-30T00:42:10.103Z,67.28
2017-10-30T00:44:44.714Z,67.56
2017-10-30T00:47:19.102Z,67.57
2017-10-30T00:49:53.722Z,67.97
2017-10-30T00:52:27.995Z,68.37
2017-10-30T00:55:03.073Z,68.78
2017-10-30T00:57:42.643Z,68.83
2017-10-30T01:00:17.111Z,68.96
2017-10-30T01:02:51.027Z,69.53
2017-10-30T01:05:25.551Z,69.52
2017-10-30T01:08:00.121Z,69.77
2017-10-30T01:10:34.600Z,69.99
2017-10-30T01:13:09.198Z,69.77
2017-10-30T01:15:43.702Z,69.36
2017-10-30T01:18:18.123Z,69.18
2017-10-30T01:20:52.596Z,69.04
2017-10-30T01:23:27.122Z,69.48
2017-10-30T01:26:01.587Z,68.94
2017-10-30T01:28:36.295Z,68.50
2017-10-30T01:31:10.878Z,67.38
2017-10-30T01:33:45.399Z,66.37
2017-10-30T01:36:19.814Z,66.77
2017-10-30T01:38:54.231Z,65.80
2017-10-30T01:41:28.765Z,64.28
2017-10-30T01:44:03.196Z,65.06
2017-10-30T01:46:37.683Z,64.00
2017-10-30T01:49:12.406Z,63.47
2017-10-30T01:51:46.887Z,62.53
2017-10-30T01:54:21.415Z,62.06
2017-10-30T01:56:55.619Z,62.13
2017-10-30T01:59:29.790Z,62.16
2017-10-30T02:02:04.203Z,61.97
2017-10-30T02:04:38.868Z,62.22
2017-10-30T02:07:13.303Z,62.30
2017-10-30T02:09:47.827Z,62.30
2017-10-30T02:12:22.223Z,62.36
2017-10-30T02:14:56.690Z,62.58
2017-10-30T02:17:31.114Z,62.68
2017-10-30T02:20:14.331Z,62.61
2017-10-30T02:22:48.519Z,62.59
2017-10-30T02:25:23.282Z,62.13
2017-10-30T02:27:57.456Z,62.63
2017-10-30T02:30:31.922Z,62.69
2017-10-30T02:33:06.406Z,62.71
2017-10-30T02:35:40.936Z,62.91
2017-10-30T02:38:15.373Z,63.29
2017-10-30T02:40:49.697Z,63.66
2017-10-30T02:43:23.903Z,64.24
2017-10-30T02:45:58.426Z,64.79
2017-10-30T02:48:32.639Z,65.65
2017-10-30T02:51:06.853Z,65.97
2017-10-30T02:53:40.894Z,66.94
2017-10-30T02:56:16.070Z,67.27
2017-10-30T02:58:50.514Z,67.50
2017-10-30T03:01:24.915Z,67.92
2017-10-30T03:03:59.162Z,68.31
2017-10-30T03:06:33.264Z,68.38
2017-10-30T03:09:07.524Z,68.72
2017-10-30T03:11:41.567Z,68.85
2017-10-30T03:14:16.075Z,68.97
2017-10-30T03:16:50.626Z,69.24
2017-10-30T03:19:24.823Z,69.27
2017-10-30T03:21:59.299Z,69.30
2017-10-30T03:24:33.350Z,69.54
2017-10-30T03:27:07.467Z,69.14
2017-10-30T03:29:42.072Z,69.27
2017-10-30T03:32:16.128Z,69.33
2017-10-30T03:34:50.558Z,69.37
2017-10-30T03:37:25.206Z,69.51
2017-10-30T03:39:59.791Z,69.64
2017-10-30T03:42:34.233Z,69.29
2017-10-30T03:45:14.605Z,69.36
2017-10-30T03:47:49.980Z,69.24
2017-10-30T03:50:24.526Z,68.93
2017-10-30T03:52:59.170Z,68.53
2017-10-30T03:55:33.650Z,68.69
2017-10-30T03:58:08.189Z,68.88
2017-10-30T04:00:42.645Z,69.10
2017-10-30T04:03:16.811Z,69.25
2017-10-30T04:05:51.321Z,69.07
2017-10-30T04:08:26.040Z,68.79
2017-10-30T04:11:00.581Z,68.53
2017-10-30T04:13:35.085Z,68.70
2017-10-30T04:16:09.494Z,68.43
2017-10-30T04:18:44.104Z,68.42
2017-10-30T04:21:18.931Z,68.28
2017-10-30T04:23:53.507Z,68.01
2017-10-30T04:26:27.967Z,68.10
2017-10-30T04:29:02.522Z,67.63
2017-10-30T04:31:36.907Z,67.82
2017-10-30T04:34:11.330Z,67.44
2017-10-30T04:36:45.757Z,67.73
2017-10-30T04:39:20.532Z,67.81
2017-10-30T04:41:55.151Z,67.03
2017-10-30T04:44:29.641Z,67.49
2017-10-30T04:47:04.105Z,67.30
2017-10-30T04:49:38.646Z,67.78
2017-10-30T04:52:13.171Z,68.03
2017-10-30T04:54:47.931Z,67.84
2017-10-30T04:57:22.439Z,68.24
2017-10-30T04:59:57.050Z,67.50
2017-10-30T05:02:31.452Z,67.51
2017-10-30T05:05:09.951Z,67.35
2017-10-30T05:07:44.482Z,67.24
2017-10-30T05:10:19.008Z,67.67
2017-10-30T05:12:53.454Z,68.14
2017-10-30T05:15:27.874Z,68.43
2017-10-30T05:18:02.438Z,68.92
2017-10-30T05:20:37.062Z,69.16
2017-10-30T05:23:11.507Z,69.21
2017-10-30T05:25:45.939Z,69.09
2017-10-30T05:28:20.483Z,69.84
2017-10-30T05:30:55.134Z,70.17
2017-10-30T05:33:30.333Z,71.45
2017-10-30T05:36:04.950Z,71.74
2017-10-30T05:38:39.411Z,72.09
2017-10-30T05:41:14.011Z,72.42
2017-10-30T05:43:48.629Z,72.17
2017-10-30T05:46:23.118Z,71.90
2017-10-30T05:48:57.687Z,71.89
2017-10-30T05:51:32.174Z,71.79
2017-10-30T05:54:06.811Z,71.94
2017-10-30T05:56:41.247Z,72.25
2017-10-30T05:59:15.687Z,72.33
2017-10-30T06:01:50.134Z,72.68
2017-10-30T06:04:24.559Z,72.63
2017-10-30T06:06:59.404Z,72.72
2017-10-30T06:09:33.790Z,72.77
2017-10-30T06:12:08.361Z,73.02
2017-10-30T06:14:42.814Z,72.79
2017-10-30T06:17:17.316Z,72.44
2017-10-30T06:19:52.059Z,72.30
2017-10-30T06:22:26.647Z,71.99
2017-10-30T06:25:01.133Z,71.85
2017-10-30T06:27:35.793Z,71.85
2017-10-30T06:30:17.633Z,71.65
2017-10-30T06:32:52.290Z,72.10
2017-10-30T06:35:26.709Z,72.37
2017-10-30T06:38:01.235Z,72.44
2017-10-30T06:40:35.655Z,72.95
2017-10-30T06:43:10.972Z,73.52
2017-10-30T06:45:45.457Z,73.36
2017-10-30T06:48:20.023Z,73.86
2017-10-30T06:50:54.567Z,74.22
2017-10-30T06:53:29.436Z,74.19
2017-10-30T06:56:03.961Z,74.06
2017-10-30T06:58:38.851Z,74.16
2017-10-30T07:01:13.831Z,74.41
2017-10-30T07:03:48.367Z,74.55
2017-10-30T07:06:22.802Z,74.90
2017-10-30T07:08:57.262Z,74.62
2017-10-30T07:11:32.128Z,74.79
2017-10-30T07:14:06.847Z,74.77
2017-10-30T07:16:41.234Z,75.11
2017-10-30T07:19:15.783Z,74.83
2017-10-30T07:21:50.182Z,74.33
2017-10-30T07:24:24.750Z,74.75
2017-10-30T07:26:59.263Z,74.73
2017-10-30T07:29:33.899Z,75.02
2017-10-30T07:32:08.299Z,77.02
2017-10-30T07:34:42.890Z,77.26
2017-10-30T07:37:17.419Z,78.16
2017-10-30T07:39:52.014Z,79.17
2017-10-30T07:42:26.438Z,80.84
2017-10-30T07:45:00.851Z,83.81
2017-10-30T07:47:35.284Z,82.85
2017-10-30T07:50:15.447Z,81.49
2017-10-30T07:52:49.873Z,81.48
2017-10-30T07:55:24.254Z,81.13
2017-10-30T07:57:58.331Z,82.06
2017-10-30T08:00:32.381Z,78.76
2017-10-30T08:03:06.634Z,78.37
2017-10-30T08:05:41.145Z,78.87
2017-10-30T08:08:15.812Z,78.78
2017-10-30T08:10:49.944Z,78.98
2017-10-30T08:13:24.158Z,79.33
2017-10-30T08:15:58.328Z,79.77
2017-10-30T08:18:32.806Z,79.18
2017-10-30T08:21:06.899Z,78.60
2017-10-30T08:23:41.018Z,78.47
2017-10-30T08:26:15.487Z,78.13
2017-10-30T08:28:49.746Z,78.59
2017-10-30T08:31:24.208Z,78.29
2017-10-30T08:33:58.375Z,76.48
2017-10-30T08:36:32.423Z,76.05
2017-10-30T08:39:06.994Z,76.17
2017-10-30T08:41:41.138Z,75.07
2017-10-30T08:44:15.654Z,73.80
2017-10-30T08:46:50.491Z,73.81
2017-10-30T08:49:25.015Z,73.42
2017-10-30T08:51:59.230Z,72.79
2017-10-30T08:54:33.524Z,73.15
2017-10-30T08:57:08.270Z,72.29
2017-10-30T08:59:43.377Z,72.63
2017-10-30T09:02:17.432Z,73.66
2017-10-30T09:04:51.668Z,77.02
2017-10-30T09:07:25.906Z,78.10
2017-10-30T09:10:00.075Z,78.97
2017-10-30T09:12:34.185Z,78.35
2017-10-30T09:15:12.853Z,79.97
2017-10-30T09:17:46.987Z,79.25
2017-10-30T09:20:28.363Z,81.21
2017-10-30T09:23:02.547Z,81.66
2017-10-30T09:25:36.675Z,80.94
2017-10-30T09:28:10.691Z,78.67
2017-10-30T09:30:44.926Z,79.92
2017-10-30T09:33:19.071Z,77.44
2017-10-30T09:35:53.182Z,76.47
2017-10-30T09:38:27.625Z,73.04
2017-10-30T09:41:02.177Z,71.90
2017-10-30T09:43:36.287Z,68.08
2017-10-30T09:46:10.925Z,64.74
2017-10-30T09:48:45.076Z,65.25
2017-10-30T09:51:19.570Z,66.93
2017-10-30T09:53:53.770Z,67.22
2017-10-30T09:56:27.874Z,62.31
2017-10-30T09:59:02.137Z,64.25
2017-10-30T10:01:36.811Z,60.66
2017-10-30T10:04:11.021Z,57.88
2017-10-30T10:06:45.522Z,59.45
2017-10-30T10:09:19.802Z,55.56
2017-10-30T10:11:54.489Z,55.09
2017-10-30T10:14:29.034Z,53.64
2017-10-30T10:17:03.948Z,52.92
2017-10-30T10:19:38.339Z,52.25
2017-10-30T10:22:12.825Z,54.35
2017-10-30T10:24:47.338Z,50.38
2017-10-30T10:27:21.846Z,50.38
2017-10-30T10:29:56.116Z,52.47
2017-10-30T10:32:30.607Z,49.20
2017-10-30T10:35:09.460Z,48.26
2017-10-30T10:37:43.982Z,48.82
2017-10-30T10:40:18.137Z,49.38
2017-10-30T10:42:52.382Z,47.84
2017-10-30T10:45:26.501Z,47.68
2017-10-30T10:48:00.407Z,48.35
2017-10-30T10:50:34.810Z,47.84
2017-10-30T10:53:09.388Z,49.50
2017-10-30T10:55:43.835Z,52.83
2017-10-30T10:58:18.379Z,54.31
2017-10-30T11:00:52.847Z,61.78
2017-10-30T11:03:27.270Z,64.68
2017-10-30T11:06:01.682Z,63.29
2017-10-30T11:08:36.106Z,61.52
2017-10-30T11:11:10.597Z,61.18
2017-10-30T11:13:45.083Z,61.62
2017-10-30T11:16:19.914Z,61.98
2017-10-30T11:18:54.151Z,61.83
2017-10-30T11:21:28.740Z,61.11
2017-10-30T11:24:03.147Z,61.07
2017-10-30T11:26:37.575Z,60.91
2017-10-30T11:29:12.179Z,59.95
2017-10-30T11:31:46.619Z,60.39
2017-10-30T11:34:21.171Z,59.31
2017-10-30T11:36:55.630Z,58.97
2017-10-30T11:39:30.194Z,59.89
2017-10-30T11:42:04.570Z,58.38
2017-10-30T11:44:39.112Z,58.04
2017-10-30T11:47:13.627Z,57.11
2017-10-30T11:49:48.182Z,57.43
2017-10-30T11:52:22.704Z,57.70
2017-10-30T11:54:57.344Z,57.11
2017-10-30T11:57:31.987Z,56.93
2017-10-30T12:00:06.086Z,57.13
2017-10-30T12:02:40.580Z,56.16
2017-10-30T12:05:15.090Z,55.40
2017-10-30T12:07:49.596Z,54.66
2017-10-30T12:10:23.714Z,54.25
2017-10-30T12:12:58.310Z,53.98
2017-10-30T12:15:32.761Z,53.76
2017-10-30T12:18:07.135Z,53.76
2017-10-30T12:20:41.641Z,53.79
2017-10-30T12:23:16.218Z,54.40
2017-10-30T12:25:50.711Z,53.46
2017-10-30T12:28:25.491Z,54.29
2017-10-30T12:30:59.892Z,55.16
2017-10-30T12:33:34.794Z,55.10
2017-10-30T12:36:09.407Z,54.48
2017-10-30T12:38:44.007Z,53.06
2017-10-30T12:41:18.472Z,53.49
2017-10-30T12:43:53.005Z,54.99
2017-10-30T12:46:27.413Z,55.64
2017-10-30T12:49:01.991Z,56.82
2017-10-30T12:51:36.389Z,55.75
2017-10-30T12:54:10.926Z,55.41
2017-10-30T12:56:45.346Z,54.62
2017-10-30T12:59:20.047Z,53.93
2017-10-30T13:01:54.462Z,53.77
2017-10-30T13:04:29.085Z,54.07
2017-10-30T13:07:03.572Z,54.32
2017-10-30T13:09:38.094Z,55.45
2017-10-30T13:12:12.571Z,55.99
2017-10-30T13:14:47.139Z,56.04
2017-10-30T13:17:21.881Z,57.04
2017-10-30T13:19:56.514Z,57.78
2017-10-30T13:22:30.978Z,57.13
2017-10-30T13:25:05.467Z,57.17
2017-10-30T13:27:39.875Z,57.42
2017-10-30T13:30:14.342Z,56.41
2017-10-30T13:32:48.695Z,56.06
2017-10-30T13:35:23.542Z,55.95
2017-10-30T13:37:58.133Z,55.55
2017-10-30T13:40:32.582Z,54.49
2017-10-30T13:43:08.054Z,54.67
2017-10-30T13:45:42.646Z,55.24
2017-10-30T13:48:17.230Z,55.20
2017-10-30T13:50:51.983Z,54.60
2017-10-30T13:53:26.531Z,54.59
2017-10-30T13:56:01.015Z,55.26
2017-10-30T13:58:35.610Z,55.53
2017-10-30T14:01:10.112Z,54.82
2017-10-30T14:03:44.652Z,54.79
2017-10-30T14:06:19.070Z,55.07
2017-10-30T14:08:53.568Z,55.17
2017-10-30T14:11:28.275Z,55.21
2017-10-30T14:14:02.870Z,55.04
2017-10-30T14:16:37.355Z,55.59
2017-10-30T14:19:11.866Z,54.93
2017-10-30T14:21:46.247Z,55.40
2017-10-30T14:24:20.813Z,55.16
2017-10-30T14:26:55.306Z,53.97
2017-10-30T14:29:29.930Z,52.93
2017-10-30T14:32:03.998Z,53.60
2017-10-30T14:34:38.213Z,53.69
2017-10-30T14:37:12.712Z,53.54
2017-10-30T14:39:46.996Z,53.50
2017-10-30T14:42:21.486Z,53.41
2017-10-30T14:44:56.015Z,53.52
2017-10-30T14:47:30.102Z,54.01
2017-10-30T14:50:04.191Z,53.97
2017-10-30T14:52:38.242Z,54.17
2017-10-30T14:55:12.417Z,54.24
2017-10-30T14:57:46.579Z,54.66
2017-10-30T15:00:20.447Z,55.15
2017-10-30T15:02:54.644Z,55.40
2017-10-30T15:05:28.694Z,55.65
2017-10-30T15:08:03.003Z,56.14
2017-10-30T15:10:37.282Z,56.75
2017-10-30T15:13:11.906Z,58.07
2017-10-30T15:15:46.335Z,60.81
2017-10-30T15:18:20.947Z,63.04
2017-10-30T15:20:55.071Z,63.48
2017-10-30T15:23:29.099Z,63.95
2017-10-30T15:26:03.580Z,63.91
2017-10-30T15:28:37.961Z,64.97
2017-10-30T15:31:12.451Z,66.42
2017-10-30T15:33:47.154Z,66.83
2017-10-30T15:36:21.637Z,66.91
2017-10-30T15:38:56.256Z,66.83
2017-10-30T15:41:30.772Z,67.14
2017-10-30T15:44:05.362Z,67.31
2017-10-30T15:46:39.789Z,66.94
2017-10-30T15:49:14.698Z,67.12
2017-10-30T15:51:49.326Z,67.40
2017-10-30T15:54:23.571Z,66.58
2017-10-30T15:56:58.040Z,66.08
2017-10-30T15:59:32.674Z,66.25
2017-10-30T16:02:07.076Z,66.57
2017-10-30T16:04:41.643Z,66.14
2017-10-30T16:07:16.766Z,64.51
2017-10-30T16:09:51.364Z,61.26
2017-10-30T16:12:25.770Z,60.16
2017-10-30T16:15:00.350Z,59.76
2017-10-30T16:17:34.958Z,60.26
2017-10-30T16:20:09.479Z,58.88
2017-10-30T16:22:44.004Z,58.37
2017-10-30T16:25:18.522Z,58.43
2017-10-30T16:27:53.021Z,58.63
2017-10-30T16:30:27.205Z,58.94
2017-10-30T16:33:01.736Z,58.94
2017-10-30T16:35:36.196Z,59.38
2017-10-30T16:38:10.818Z,60.36
2017-10-30T16:40:45.206Z,60.94
2017-10-30T16:43:19.814Z,61.45
2017-10-30T16:45:54.232Z,61.92
2017-10-30T16:48:28.831Z,61.96
2017-10-30T16:51:03.239Z,62.43
2017-10-30T16:53:37.755Z,62.64
2017-10-30T16:56:11.905Z,63.04
2017-10-30T16:58:46.517Z,63.25
2017-10-30T17:01:20.983Z,63.60
2017-10-30T17:03:55.607Z,63.71
2017-10-30T17:06:30.026Z,63.93
2017-10-30T17:09:04.011Z,63.80
2017-10-30T17:11:38.689Z,63.76
2017-10-30T17:14:13.187Z,63.78
2017-10-30T17:16:47.774Z,64.76
2017-10-30T17:19:22.270Z,65.71
2017-10-30T17:21:56.715Z,66.41
2017-10-30T17:24:31.315Z,67.45
2017-10-30T17:27:05.769Z,67.76
2017-10-30T17:29:40.419Z,67.88
2017-10-30T17:32:15.007Z,68.19
2017-10-30T17:34:49.635Z,68.37
2017-10-30T17:37:24.133Z,68.64
2017-10-30T17:39:58.707Z,68.99
2017-10-30T17:42:33.135Z,69.27
2017-10-30T17:45:07.638Z,68.97
2017-10-30T17:47:42.184Z,68.95
2017-10-30T17:50:16.575Z,68.04
2017-10-30T17:52:51.202Z,67.80
2017-10-30T17:55:25.688Z,68.09
2017-10-30T17:58:00.443Z,68.84
2017-10-30T18:00:34.856Z,69.32
2017-10-30T18:03:09.035Z,70.15
2017-10-30T18:05:43.470Z,70.14
2017-10-30T18:08:18.101Z,70.22
2017-10-30T18:10:52.759Z,68.99
2017-10-30T18:13:27.255Z,68.11
2017-10-30T18:16:01.744Z,66.41
2017-10-30T18:18:36.138Z,64.21
2017-10-30T18:21:10.591Z,63.45
2017-10-30T18:23:45.179Z,61.74
2017-10-30T18:26:19.576Z,61.57
2017-10-30T18:28:54.090Z,61.47
2017-10-30T18:31:28.519Z,60.09
2017-10-30T18:34:02.865Z,60.00
2017-10-30T18:36:37.548Z,59.58
2017-10-30T18:39:12.093Z,60.04
2017-10-30T18:41:46.547Z,60.20
2017-10-30T18:44:21.083Z,62.01
2017-10-30T18:46:55.584Z,64.08
2017-10-30T18:49:30.215Z,65.86
2017-10-30T18:52:04.433Z,65.84
2017-10-30T18:54:38.879Z,65.40
2017-10-30T18:57:13.383Z,65.62
2017-10-30T18:59:47.757Z,67.05
2017-10-30T19:02:22.219Z,68.58
2017-10-30T19:04:56.775Z,69.88
2017-10-30T19:07:31.182Z,70.87
2017-10-30T19:10:07.583Z,71.42
2017-10-30T19:12:42.254Z,71.40
2017-10-30T19:15:17.100Z,71.66
2017-10-30T19:17:51.605Z,71.41
2017-10-30T19:20:26.070Z,70.06
2017-10-30T19:23:00.584Z,68.75
2017-10-30T19:25:35.058Z,68.67
2017-10-30T19:28:09.319Z,66.85
2017-10-30T19:30:43.835Z,67.05
2017-10-30T19:33:18.433Z,67.17
2017-10-30T19:35:52.964Z,67.28
2017-10-30T19:38:27.506Z,67.61
2017-10-30T19:41:01.920Z,67.70
2017-10-30T19:43:36.519Z,68.12
2017-10-30T19:46:10.919Z,68.12
2017-10-30T19:48:45.487Z,68.65
2017-10-30T19:51:19.890Z,68.83
2017-10-30T19:53:54.466Z,68.24
2017-10-30T19:56:28.927Z,68.01
2017-10-30T19:59:03.336Z,68.12
2017-10-30T20:01:37.817Z,68.23
2017-10-30T20:04:12.042Z,68.56
2017-10-30T20:06:51.942Z,69.82
2017-10-30T20:09:32.325Z,70.65
2017-10-30T20:12:12.069Z,70.07
2017-10-30T20:14:46.574Z,70.12
2017-10-30T20:17:21.055Z,69.56
2017-10-30T20:19:55.462Z,68.61
2017-10-30T20:22:29.942Z,68.50
2017-10-30T20:25:12.818Z,68.03
2017-10-30T20:27:47.230Z,67.24
2017-10-30T20:30:21.650Z,67.08
2017-10-30T20:32:56.142Z,67.21
2017-10-30T20:35:30.560Z,67.34
2017-10-30T20:38:05.034Z,68.02
2017-10-30T20:40:39.424Z,68.49
2017-10-30T20:43:14.026Z,68.44
2017-10-30T20:45:48.405Z,68.51
2017-10-30T20:48:23.038Z,68.80
2017-10-30T20:50:57.574Z,69.17
2017-10-30T20:53:32.247Z,69.48
2017-10-30T20:56:06.695Z,69.97
2017-10-30T20:58:41.306Z,70.37
2017-10-30T21:01:15.753Z,70.18
2017-10-30T21:03:50.336Z,69.78
2017-10-30T21:06:24.735Z,70.12
2017-10-30T21:08:59.362Z,69.55
2017-10-30T21:11:35.211Z,68.66
2017-10-30T21:14:09.616Z,68.23
2017-10-30T21:16:44.033Z,67.95
2017-10-30T21:19:18.592Z,68.00
2017-10-30T21:21:53.114Z,68.12
2017-10-30T21:24:28.506Z,68.98
2017-10-30T21:27:02.987Z,70.23
2017-10-30T21:29:37.446Z,71.45
2017-10-30T21:32:11.830Z,72.61
2017-10-30T21:34:46.431Z,73.06
2017-10-30T21:37:20.807Z,73.55
2017-10-30T21:39:55.430Z,73.28
2017-10-30T21:42:29.951Z,72.84
2017-10-30T21:45:10.338Z,72.66
2017-10-30T21:47:44.715Z,72.31
2017-10-30T21:50:19.178Z,72.26
2017-10-30T21:52:53.707Z,72.40
2017-10-30T21:55:28.150Z,72.53
2017-10-30T21:58:02.669Z,72.51
2017-10-30T22:00:37.139Z,72.28
2017-10-30T22:03:11.120Z,72.41
2017-10-30T22:05:45.715Z,72.73
2017-10-30T22:08:20.437Z,72.56
2017-10-30T22:10:54.968Z,72.55
2017-10-30T22:13:29.550Z,72.85
2017-10-30T22:16:04.654Z,73.35
2017-10-30T22:18:38.946Z,73.97
2017-10-30T22:21:13.598Z,74.41
2017-10-30T22:23:48.142Z,74.66
2017-10-30T22:26:22.565Z,74.64
2017-10-30T22:28:57.151Z,74.60
2017-10-30T22:31:31.627Z,74.61
2017-10-30T22:34:06.203Z,74.23
2017-10-30T22:36:40.654Z,74.08
2017-10-30T22:39:15.241Z,73.55
2017-10-30T22:41:49.775Z,73.56
2017-10-30T22:44:24.223Z,73.31
2017-10-30T22:46:58.670Z,73.21
2017-10-30T22:49:33.296Z,73.12
2017-10-30T22:52:07.679Z,72.90
2017-10-30T22:54:42.288Z,72.98
2017-10-30T22:57:16.745Z,72.63
2017-10-30T22:59:51.357Z,72.77
2017-10-30T23:02:25.795Z,72.90
2017-10-30T23:05:00.310Z,72.78
2017-10-30T23:07:34.791Z,72.81
2017-10-30T23:10:14.922Z,72.81
2017-10-30T23:12:49.519Z,72.99
2017-10-30T23:15:24.734Z,73.18
2017-10-30T23:17:59.266Z,73.17
2017-10-30T23:20:34.103Z,73.50
2017-10-30T23:23:08.706Z,74.37
2017-10-30T23:25:43.145Z,75.02
2017-10-30T23:28:17.686Z,75.66
2017-10-30T23:30:52.103Z,76.01
2017-10-30T23:33:26.514Z,76.17
2017-10-30T23:36:01.034Z,76.60
2017-10-30T23:38:35.582Z,76.66
2017-10-30T23:41:09.999Z,77.02
2017-10-30T23:43:44.630Z,77.12
2017-10-30T23:46:19.106Z,77.01
2017-10-30T23:48:53.762Z,77.02
2017-10-30T23:51:28.170Z,77.04
2017-10-30T23:54:02.694Z,77.02
2017-10-30T23:56:37.167Z,77.01
2017-10-30T23:59:11.640Z,76.93
